• Join FlightAware (Why Join?)
  • Login
  • US Flag 
04:59PM EDT


 

Airport Tracker/Info


-or-


 

Live Flight TrackerFlight Track Log ✈ BJS442 ✈ 21-Apr-2014 ✈ KAUS - KFTW

Flight Track Log - Related Links

Times and Time Zones

All times are in EDT time to prevent confusion due to time zone crossing. See the BJS442 flight status page for this flight to view local times or setup timezone preferences in your user account.

Time Position Orientation Groundspeed Altitude Reporting Facility
EDT Latitude Longitude Course Direction KTS MPH feet Rate Location/Type
07:11PM 30.1539 -97.6047 47° Northeast 229 264 5,900  Level Fort Worth Center
07:12PM 30.1953 -97.5183 61° Northeast 247 284 11,000 2,880 Climbing Fort Worth Center
07:13PM 30.2689 -97.4469 40° Northeast 350 403 12,000 660 Climbing Houston Center
07:14PM 30.3672 -97.4014 22° Northeast 376 433 12,500 1,860 Climbing Houston Center
07:15PM 30.4855 -97.3836 45° Northeast  Level FlightAware Approximate
07:15PM 30.4681 -97.3497 24° Northeast 392 451 15,900  Level Houston Center
07:16PM 30.5400 -97.3167 47° Northeast  Level FlightAware Approximate
07:16PM 30.6000 -97.2728 27° Northeast 442 509 20,000  Level Houston Center
07:17PM 30.6869 -97.1625 47° Northeast 465 535 22,000 960 Climbing Houston Center
07:18PM 30.7800 -97.0511 46° Northeast 481 554 22,000  Level Houston Center
07:19PM 30.8744 -96.9372 46° Northeast 494 568 22,000  Level Houston Center
07:20PM 30.9817 -96.8067 46° Northeast 472 543 22,000  Level Houston Center
07:21PM 31.0700 -96.7011 46° Northeast 462 532 22,000  Level Houston Center
07:22PM 31.1603 -96.6033 43° Northeast 459 528 22,000  Level Houston Center
07:23PM 31.2797 -96.5547 19° North 460 529 22,000  Level Houston Center
07:24PM 31.3894 -96.5156 17° North 424 488 22,000 -60 Level Fort Worth Center
07:25PM 31.4969 -96.4753 18° North 412 474 21,900 -360 Descending Fort Worth Center
07:26PM 31.6006 -96.4369 17° North 396 456 21,300 -1,020 Descending Fort Worth Center
07:27PM 31.7158 -96.3936 18° North 407 468 19,800 -1,440 Descending Fort Worth Center
07:28PM 31.8294 -96.3517 17° North 423 487 18,300 -1,560 Descending Fort Worth Center
07:29PM 31.9619 -96.3011 18° North 420 483 16,600 -1,560 Descending Fort Worth Center
07:30PM 32.0642 -96.2628 18° North 391 450 15,100 -1,020 Descending Fort Worth Center
07:31PM 32.1619 -96.2514 North 365 420 14,600 -1,320 Descending Fort Worth Center
07:32PM 32.2606 -96.2914 341° North 346 398 12,400 -2,160 Descending Fort Worth Center
07:33PM 32.3525 -96.3317 340° North 330 380 10,200 -1,680 Descending Fort Worth Center
07:34PM 32.4261 -96.3633 340° North 284 327 9,000 -780 Descending Fort Worth Center
07:36PM 32.5017 -96.3839 347° North 261 300 8,600 -660 Descending Fort Worth Center
07:37PM 32.5681 -96.4186 336° Northwest 261 300 7,700 -960 Descending Fort Worth Center
07:38PM 32.6356 -96.4606 332° Northwest 257 296 6,700 -1,200 Descending Fort Worth Center
07:39PM 32.6881 -96.5183 317° Northwest 256 295 5,300 -840 Descending Fort Worth Center
07:40PM 32.7339 -96.5914 307° West 255 293 5,000 -180 Descending Fort Worth Center
07:41PM 32.7767 -96.6561 308° West 252 290 5,000  Level Fort Worth Center
07:42PM 32.8197 -96.7217 308° West 252 290 5,000  Level Fort Worth Center
07:43PM 32.8728 -96.7850 315° West 252 290 5,000  Level Fort Worth Center
07:44PM 32.8928 -96.8697 286° West 254 292 5,000  Level Fort Worth Center
07:45PM 32.8989 -96.9550 275° West 256 295 5,000 -480 Level Fort Worth Center
07:46PM 32.9031 -97.0453 273° West 256 295 4,100 -600 Descending Fort Worth Center
07:47PM 32.8892 -97.1269 259° West 257 296 3,800 -540 Descending Fort Worth Center
07:48PM 32.8556 -97.2039 243° Southwest 261 300 3,000 -480 Descending Fort Worth Center
07:49PM 32.8183 -97.2836 241° Southwest 257 296 2,900 -540 Descending Fort Worth Center
07:50PM 32.7897 -97.3278 232° Southwest 157 181 2,000 -1,020 Descending Fort Worth Center
07:51PM 32.8083 -97.3600 305° West 120 138 800 -1,200 Descending Fort Worth Center
07:53PM 32.8167 -97.3500 248° West  Level FlightAware Approximate
08:00PM 32.8193 -97.3617 248° West  Level Estimated